createdAt,value
2022-11-16T00:11:10.321Z,100
2022-11-16T00:25:38.824Z,100
2022-11-16T00:40:06.842Z,100
2022-11-16T00:54:34.552Z,100
2022-11-16T01:09:02.864Z,100
2022-11-16T01:23:32.100Z,100
2022-11-16T01:38:00.470Z,100
2022-11-16T01:52:27.856Z,100
2022-11-16T02:06:59.358Z,100
2022-11-16T02:21:24.661Z,100
2022-11-16T02:35:52.902Z,100
2022-11-16T02:50:20.344Z,100
2022-11-16T03:04:48.235Z,100
2022-11-16T03:19:16.261Z,100
2022-11-16T03:33:42.313Z,100
2022-11-16T03:48:12.342Z,100
2022-11-16T04:02:38.481Z,100
2022-11-16T04:17:06.454Z,100
2022-11-16T04:31:34.669Z,100
2022-11-16T04:46:03.271Z,100
2022-11-16T05:00:30.229Z,100
2022-11-16T05:14:57.959Z,100
2022-11-16T05:29:26.048Z,100
2022-11-16T05:43:54.678Z,100
2022-11-16T05:58:23.690Z,100
2022-11-16T06:12:51.231Z,100
2022-11-16T06:27:19.446Z,100
2022-11-16T06:41:46.584Z,100
2022-11-16T06:56:16.223Z,100
2022-11-16T07:10:43.493Z,100
2022-11-16T07:25:11.264Z,100
2022-11-16T07:39:40.480Z,100
2022-11-16T07:54:08.484Z,100
2022-11-16T08:08:36.958Z,100
2022-11-16T08:23:06.800Z,100
2022-11-16T08:37:33.635Z,100
2022-11-16T08:51:59.989Z,100
2022-11-16T09:06:32.505Z,87.4
2022-11-16T09:21:01.855Z,93.2
2022-11-16T09:35:26.610Z,92.2
2022-11-16T09:50:03.157Z,95.6
2022-11-16T10:04:26.593Z,94.2
2022-11-16T10:18:53.804Z,87.8
2022-11-16T10:33:22.666Z,88.6
2022-11-16T10:47:50.551Z,83.8
2022-11-16T11:02:19.233Z,82.6
2022-11-16T11:16:45.220Z,82.7
2022-11-16T11:31:13.583Z,79.4
2022-11-16T11:45:40.671Z,78.4
2022-11-16T12:00:08.929Z,78.8
2022-11-16T12:14:40.711Z,79.4
2022-11-16T12:29:07.870Z,77.9
2022-11-16T12:43:36.553Z,77.8
2022-11-16T12:58:02.671Z,79.4
2022-11-16T13:12:30.658Z,77.5
2022-11-16T13:27:00.681Z,79.4
2022-11-16T13:41:27.376Z,78.1
2022-11-16T13:55:53.875Z,81.1
2022-11-16T14:10:22.221Z,79.8
2022-11-16T14:24:50.697Z,80.6
2022-11-16T14:39:19.730Z,82.2
2022-11-16T14:53:44.515Z,84.5
2022-11-16T15:08:11.791Z,85.1
2022-11-16T15:22:39.783Z,86
2022-11-16T15:37:08.075Z,84.8
2022-11-16T15:51:35.725Z,83.9
2022-11-16T16:06:03.797Z,85.9
2022-11-16T16:20:31.909Z,87
2022-11-16T16:34:59.076Z,86.4
2022-11-16T16:49:28.055Z,86.5
2022-11-16T17:03:55.967Z,91.4
2022-11-16T17:18:29.129Z,91.1
2022-11-16T17:32:53.014Z,94.6
2022-11-16T17:47:22.118Z,96.8
2022-11-16T18:01:50.181Z,99.9
2022-11-16T18:16:17.948Z,99.9
2022-11-16T18:30:44.503Z,100
2022-11-16T18:45:11.514Z,100
2022-11-16T18:59:40.346Z,100
2022-11-16T19:14:07.998Z,100
2022-11-16T19:28:36.375Z,100
2022-11-16T19:43:04.425Z,100
2022-11-16T19:57:32.282Z,100
2022-11-16T20:12:00.225Z,100
2022-11-16T20:26:29.195Z,100
2022-11-16T20:40:57.390Z,100
2022-11-16T20:55:25.664Z,100
2022-11-16T21:09:52.930Z,100
2022-11-16T21:24:19.952Z,100
2022-11-16T21:38:47.535Z,100
2022-11-16T21:53:15.994Z,100
2022-11-16T22:07:43.923Z,100
2022-11-16T22:22:12.845Z,100
2022-11-16T22:36:40.033Z,100
2022-11-16T22:51:08.786Z,100
2022-11-16T23:05:36.331Z,100
2022-11-16T23:20:04.294Z,100
2022-11-16T23:34:30.465Z,100
2022-11-16T23:49:00.122Z,100
